createdAt,value
2019-03-16T00:01:56.210Z,4.00
2019-03-16T00:04:26.799Z,4.43
2019-03-16T00:06:59.791Z,4.67
2019-03-16T00:09:32.661Z,4.77
2019-03-16T00:12:44.353Z,4.90
2019-03-16T00:15:37.185Z,4.90
2019-03-16T00:22:01.581Z,5.03
2019-03-16T00:25:20.101Z,5.07
2019-03-16T00:27:54.271Z,5.27
2019-03-16T00:30:24.970Z,4.73
2019-03-16T00:32:57.514Z,4.93
2019-03-16T00:35:32.523Z,4.17
2019-03-16T00:38:04.204Z,3.90
2019-03-16T00:40:36.670Z,4.30
2019-03-16T00:43:08.366Z,3.60
2019-03-16T00:45:38.863Z,3.87
2019-03-16T00:48:10.958Z,3.63
2019-03-16T00:50:48.336Z,3.70
2019-03-16T00:53:20.412Z,4.43
2019-03-16T00:55:54.536Z,3.73
2019-03-16T00:58:27.662Z,3.83
2019-03-16T01:01:00.807Z,3.13
2019-03-16T01:03:33.629Z,3.20
2019-03-16T01:06:07.496Z,3.17
2019-03-16T01:08:38.252Z,3.07
2019-03-16T01:11:08.483Z,3.27
2019-03-16T01:13:39.846Z,3.03
2019-03-16T01:16:11.847Z,3.00
2019-03-16T01:18:50.028Z,2.50
2019-03-16T01:21:23.230Z,3.00
2019-03-16T01:23:55.045Z,2.67
2019-03-16T01:26:25.968Z,3.00
2019-03-16T01:28:57.401Z,2.73
2019-03-16T01:31:30.145Z,2.90
2019-03-16T01:34:03.136Z,3.07
2019-03-16T01:36:35.701Z,3.73
2019-03-16T01:39:08.798Z,2.90
2019-03-16T01:41:40.453Z,3.03
2019-03-16T01:44:13.566Z,3.27
2019-03-16T01:46:51.461Z,2.70
2019-03-16T01:49:25.435Z,2.53
2019-03-16T01:51:57.171Z,2.50
2019-03-16T01:54:28.580Z,2.40
2019-03-16T01:57:03.048Z,2.70
2019-03-16T01:59:33.995Z,2.70
2019-03-16T02:02:09.956Z,2.33
2019-03-16T02:04:42.019Z,2.30
2019-03-16T02:07:13.007Z,2.57
2019-03-16T02:09:44.690Z,2.77
2019-03-16T02:12:19.709Z,3.00
2019-03-16T02:14:53.650Z,2.67
2019-03-16T02:17:25.383Z,2.40
2019-03-16T02:19:58.231Z,2.77
2019-03-16T02:22:29.364Z,3.03
2019-03-16T02:25:01.374Z,3.33
2019-03-16T02:27:37.173Z,3.27
2019-03-16T02:30:12.265Z,2.73
2019-03-16T02:32:48.791Z,2.90
2019-03-16T02:35:30.753Z,2.83
2019-03-16T02:38:07.021Z,2.83
2019-03-16T02:40:59.126Z,3.00
2019-03-16T02:43:54.580Z,2.60
2019-03-16T02:46:54.221Z,2.60
2019-03-16T02:49:38.394Z,2.87
2019-03-16T02:52:31.472Z,2.43
2019-03-16T02:55:08.350Z,2.50
2019-03-16T02:58:04.231Z,2.40
2019-03-16T03:07:29.315Z,2.87
2019-03-16T03:10:08.224Z,2.40
2019-03-16T03:13:13.306Z,2.33
2019-03-16T03:16:16.570Z,2.70
2019-03-16T03:18:58.611Z,3.00
2019-03-16T03:22:03.192Z,2.67
2019-03-16T03:24:49.751Z,2.63
2019-03-16T03:27:23.733Z,2.60
2019-03-16T03:30:02.939Z,3.60
2019-03-16T03:36:55.136Z,3.07
2019-03-16T03:39:37.738Z,2.63
2019-03-16T03:42:14.446Z,3.50
2019-03-16T03:44:53.980Z,2.93
2019-03-16T03:47:24.180Z,3.20
2019-03-16T03:50:03.033Z,3.23
2019-03-16T03:52:45.468Z,3.00
2019-03-16T03:55:20.410Z,2.93
2019-03-16T03:58:22.219Z,3.27
2019-03-16T04:01:03.064Z,3.10
2019-03-16T04:03:44.924Z,3.17
2019-03-16T04:06:22.344Z,3.30
2019-03-16T04:08:55.772Z,3.00
2019-03-16T04:11:28.469Z,3.57
2019-03-16T04:13:58.715Z,3.80
2019-03-16T04:16:29.378Z,3.37
2019-03-16T04:19:00.827Z,4.70
2019-03-16T04:21:32.071Z,4.03
2019-03-16T04:24:04.822Z,3.63
2019-03-16T04:26:35.327Z,4.10
2019-03-16T04:29:05.838Z,4.00
2019-03-16T04:31:37.635Z,4.17
2019-03-16T04:34:08.641Z,4.53
2019-03-16T04:36:39.320Z,4.70
2019-03-16T04:39:09.879Z,4.90
2019-03-16T04:41:41.719Z,5.57
2019-03-16T04:44:12.230Z,5.57
2019-03-16T04:46:44.978Z,5.33
2019-03-16T04:49:15.321Z,4.73
2019-03-16T04:51:47.024Z,4.93
2019-03-16T04:54:21.696Z,4.90
2019-03-16T04:56:52.998Z,5.17
2019-03-16T04:59:27.905Z,5.10
2019-03-16T05:01:59.911Z,4.70
2019-03-16T05:04:41.974Z,5.20
2019-03-16T05:07:02.879Z,5.20
2019-03-16T05:09:34.487Z,5.27
2019-03-16T05:12:05.711Z,5.00
2019-03-16T05:14:36.432Z,4.70
2019-03-16T05:17:09.596Z,4.80
2019-03-16T05:19:39.741Z,3.80
2019-03-16T05:22:11.990Z,4.67
2019-03-16T05:24:42.632Z,3.30
2019-03-16T05:27:14.095Z,3.00
2019-03-16T05:29:44.612Z,3.03
2019-03-16T05:32:17.013Z,2.70
2019-03-16T05:34:56.398Z,3.00
2019-03-16T05:37:25.273Z,2.90
2019-03-16T05:39:55.458Z,2.80
2019-03-16T05:42:26.387Z,3.33
2019-03-16T05:44:58.436Z,2.70
2019-03-16T05:47:29.919Z,2.17
2019-03-16T05:50:00.511Z,2.13
2019-03-16T05:52:30.685Z,2.80
2019-03-16T05:55:04.172Z,2.80
2019-03-16T05:57:35.202Z,2.57
2019-03-16T06:00:09.945Z,2.40
2019-03-16T06:02:40.925Z,2.07
2019-03-16T06:05:12.036Z,2.37
2019-03-16T06:07:43.788Z,2.00
2019-03-16T06:10:14.919Z,2.20
2019-03-16T06:12:46.804Z,2.37
2019-03-16T06:15:17.331Z,2.10
2019-03-16T06:17:49.798Z,2.50
2019-03-16T06:20:25.829Z,2.60
2019-03-16T06:22:56.776Z,2.30
2019-03-16T06:25:27.826Z,2.30
2019-03-16T06:28:00.916Z,2.67
2019-03-16T06:30:31.481Z,2.43
2019-03-16T06:33:01.774Z,2.40
2019-03-16T06:35:34.561Z,2.10
2019-03-16T06:38:06.939Z,2.50
2019-03-16T06:40:39.710Z,2.43
2019-03-16T06:43:13.556Z,2.50
2019-03-16T06:45:43.852Z,2.70
2019-03-16T06:48:15.098Z,2.67
2019-03-16T06:50:46.135Z,3.00
2019-03-16T06:53:19.679Z,2.93
2019-03-16T06:55:54.723Z,2.80
2019-03-16T06:58:25.621Z,3.27
2019-03-16T07:00:57.796Z,2.60
2019-03-16T07:03:29.093Z,2.30
2019-03-16T07:06:00.173Z,2.10
2019-03-16T07:08:34.082Z,2.87
2019-03-16T07:11:04.967Z,2.30
2019-03-16T07:13:35.553Z,2.70
2019-03-16T07:16:06.416Z,1.90
2019-03-16T07:18:36.645Z,1.67
2019-03-16T07:21:06.940Z,1.10
2019-03-16T07:23:37.299Z,1.30
2019-03-16T07:26:15.036Z,1.20
2019-03-16T07:28:51.602Z,1.10
2019-03-16T07:31:22.375Z,1.37
2019-03-16T07:33:53.916Z,1.20
2019-03-16T07:36:25.418Z,1.20
2019-03-16T07:38:55.945Z,1.23
2019-03-16T07:41:26.859Z,1.10
2019-03-16T07:44:00.855Z,1.10
2019-03-16T07:46:33.323Z,1.20
2019-03-16T07:49:06.211Z,1.23
2019-03-16T07:51:38.132Z,1.40
2019-03-16T07:54:09.651Z,1.40
2019-03-16T07:56:40.758Z,1.30
2019-03-16T07:59:11.968Z,1.37
2019-03-16T08:01:43.519Z,1.27
2019-03-16T08:04:16.283Z,1.30
2019-03-16T08:06:47.027Z,1.60
2019-03-16T08:09:18.960Z,1.37
2019-03-16T08:11:53.584Z,1.50
2019-03-16T08:14:27.907Z,1.70
2019-03-16T08:16:58.855Z,1.30
2019-03-16T08:19:30.796Z,1.73
2019-03-16T08:22:01.401Z,1.63
2019-03-16T08:24:37.706Z,1.90
2019-03-16T08:27:09.490Z,1.90
2019-03-16T08:29:41.077Z,2.07
2019-03-16T08:32:12.017Z,2.07
2019-03-16T08:34:42.735Z,2.10
2019-03-16T08:37:15.428Z,2.00
2019-03-16T08:39:47.553Z,2.20
2019-03-16T08:42:18.535Z,2.60
2019-03-16T08:44:53.734Z,2.60
2019-03-16T08:47:31.594Z,2.57
2019-03-16T08:50:03.166Z,2.50
2019-03-16T08:52:42.894Z,2.40
2019-03-16T08:55:15.396Z,2.80
2019-03-16T08:57:46.435Z,2.70
2019-03-16T09:00:19.294Z,3.00
2019-03-16T09:02:53.499Z,2.83
2019-03-16T09:05:25.347Z,2.80
2019-03-16T09:07:56.240Z,3.20
2019-03-16T09:10:27.831Z,3.03
2019-03-16T09:13:00.022Z,2.80
2019-03-16T09:15:32.990Z,3.40
2019-03-16T09:18:06.122Z,3.50
2019-03-16T09:20:38.503Z,3.60
2019-03-16T09:23:11.103Z,3.10
2019-03-16T09:25:45.524Z,3.10
2019-03-16T09:28:20.348Z,2.67
2019-03-16T09:30:52.912Z,2.73
2019-03-16T09:33:24.443Z,2.60
2019-03-16T09:35:54.959Z,2.63
2019-03-16T09:38:26.215Z,2.63
2019-03-16T09:40:57.021Z,2.10
2019-03-16T09:43:46.922Z,1.90
2019-03-16T09:46:20.378Z,2.10
2019-03-16T09:48:54.129Z,1.90
2019-03-16T09:51:28.943Z,2.03
2019-03-16T09:53:59.934Z,2.20
2019-03-16T09:56:32.845Z,2.20
2019-03-16T09:59:05.690Z,1.80
2019-03-16T10:01:59.863Z,2.10
2019-03-16T10:04:34.293Z,1.73
2019-03-16T10:07:05.240Z,1.63
2019-03-16T10:09:37.679Z,1.57
2019-03-16T10:12:09.335Z,1.40
2019-03-16T10:14:41.658Z,1.30
2019-03-16T10:17:16.107Z,1.53
2019-03-16T10:31:19.496Z,1.13
2019-03-16T10:35:08.105Z,1.23
2019-03-16T10:45:25.697Z,1.30
2019-03-16T10:47:55.925Z,1.30
2019-03-16T10:57:18.702Z,1.07
2019-03-16T10:59:49.192Z,1.30
2019-03-16T11:02:21.739Z,1.10
2019-03-16T11:04:53.901Z,1.33
2019-03-16T11:07:29.228Z,1.40
2019-03-16T11:10:35.184Z,1.27
2019-03-16T11:13:09.311Z,1.23
2019-03-16T11:15:42.558Z,1.10
2019-03-16T11:18:13.405Z,1.20
2019-03-16T11:20:46.262Z,1.30
2019-03-16T11:23:19.754Z,1.10
2019-03-16T11:25:50.798Z,1.30
2019-03-16T11:28:24.117Z,1.20
2019-03-16T11:30:56.332Z,1.50
2019-03-16T11:33:48.302Z,1.20
2019-03-16T11:36:20.364Z,1.10
2019-03-16T11:39:11.503Z,0.83
2019-03-16T11:44:50.297Z,1.20
2019-03-16T11:47:20.511Z,1.20
2019-03-16T11:57:51.216Z,1.00
2019-03-16T12:00:26.332Z,1.00
2019-03-16T12:03:06.111Z,1.37
2019-03-16T12:05:50.447Z,1.03
2019-03-16T12:08:27.925Z,1.10
2019-03-16T12:11:02.733Z,1.20
2019-03-16T12:13:39.619Z,1.10
2019-03-16T12:16:16.572Z,1.00
2019-03-16T12:18:48.016Z,1.27
2019-03-16T12:21:22.199Z,1.03
2019-03-16T12:23:53.960Z,1.20
2019-03-16T12:26:27.116Z,1.27
2019-03-16T12:29:00.154Z,1.10
2019-03-16T12:31:30.364Z,1.23
2019-03-16T12:34:04.111Z,1.40
2019-03-16T12:36:36.174Z,1.60
2019-03-16T12:39:10.663Z,1.60
2019-03-16T12:41:41.214Z,1.90
2019-03-16T12:44:15.641Z,1.23
2019-03-16T12:46:48.382Z,1.60
2019-03-16T12:49:20.833Z,1.50
2019-03-16T12:51:51.001Z,1.53
2019-03-16T12:54:23.539Z,1.30
2019-03-16T12:56:58.727Z,1.77
2019-03-16T12:59:31.524Z,1.80
2019-03-16T13:02:04.705Z,1.60
2019-03-16T13:04:35.574Z,1.83
2019-03-16T13:07:07.807Z,1.70
2019-03-16T13:09:42.372Z,1.33
2019-03-16T13:12:16.294Z,1.83
2019-03-16T13:14:54.331Z,1.83
2019-03-16T13:17:27.745Z,1.90
2019-03-16T13:19:59.586Z,2.13
2019-03-16T13:22:32.761Z,1.50
2019-03-16T13:25:07.185Z,2.07
2019-03-16T13:27:40.405Z,1.67
2019-03-16T13:30:15.644Z,1.60
2019-03-16T13:32:49.900Z,2.03
2019-03-16T13:35:20.727Z,1.53
2019-03-16T13:37:53.638Z,1.87
2019-03-16T13:40:25.084Z,2.30
2019-03-16T13:42:56.157Z,1.93
2019-03-16T13:45:30.706Z,1.40
2019-03-16T13:48:02.728Z,1.50
2019-03-16T13:50:34.657Z,1.70
2019-03-16T13:53:08.267Z,2.33
2019-03-16T13:55:40.402Z,1.80
2019-03-16T13:58:14.260Z,1.40
2019-03-16T14:00:48.840Z,2.30
2019-03-16T14:03:19.607Z,2.20
2019-03-16T14:06:10.817Z,1.70
2019-03-16T14:08:55.359Z,1.50
2019-03-16T14:11:27.069Z,1.70
2019-03-16T14:14:00.417Z,1.67
2019-03-16T14:16:33.803Z,1.53
2019-03-16T14:19:12.566Z,1.53
2019-03-16T14:21:51.885Z,1.73
2019-03-16T14:24:46.563Z,1.83
2019-03-16T14:27:21.270Z,2.33
2019-03-16T14:29:52.814Z,2.10
2019-03-16T14:32:25.866Z,2.00
2019-03-16T14:34:56.515Z,2.03
2019-03-16T14:37:27.720Z,2.67
2019-03-16T14:40:00.088Z,2.10
2019-03-16T14:42:34.153Z,1.90
2019-03-16T14:45:06.365Z,1.80
2019-03-16T14:47:41.710Z,2.00
2019-03-16T14:50:17.846Z,1.90
2019-03-16T14:52:51.782Z,2.27
2019-03-16T14:55:33.402Z,1.80
2019-03-16T14:58:04.809Z,1.97
2019-03-16T15:01:37.626Z,1.63
2019-03-16T15:04:10.202Z,2.10
2019-03-16T15:06:59.589Z,2.23
2019-03-16T15:09:31.944Z,2.90
2019-03-16T15:12:22.886Z,2.57
2019-03-16T15:14:55.461Z,2.40
2019-03-16T15:17:29.407Z,2.63
2019-03-16T15:20:08.576Z,3.30
2019-03-16T15:22:39.335Z,4.60
2019-03-16T15:25:16.106Z,3.20
2019-03-16T15:27:46.723Z,3.67
2019-03-16T15:30:24.376Z,3.10
2019-03-16T15:33:00.380Z,3.70
2019-03-16T15:35:33.929Z,3.10
2019-03-16T15:38:08.381Z,2.47
2019-03-16T15:40:45.358Z,2.07
2019-03-16T15:43:17.317Z,2.50
2019-03-16T15:45:50.467Z,2.10
2019-03-16T15:48:25.698Z,1.60
2019-03-16T15:50:56.773Z,2.00
2019-03-16T15:53:27.514Z,2.00
2019-03-16T15:55:59.676Z,1.83
2019-03-16T15:58:30.177Z,2.00
2019-03-16T16:01:03.747Z,2.10
2019-03-16T16:03:33.451Z,2.27
2019-03-16T16:06:08.677Z,2.23
2019-03-16T16:08:39.222Z,2.00
2019-03-16T16:11:12.762Z,2.03
2019-03-16T16:13:48.319Z,1.93
2019-03-16T16:16:20.705Z,2.33
2019-03-16T16:18:50.708Z,2.50
2019-03-16T16:24:25.625Z,1.90
2019-03-16T16:26:57.898Z,2.30
2019-03-16T16:29:31.743Z,1.90
2019-03-16T16:32:06.512Z,2.30
2019-03-16T16:34:39.869Z,1.90
2019-03-16T16:37:18.775Z,2.00
2019-03-16T16:39:50.219Z,2.10
2019-03-16T16:42:23.074Z,2.30
2019-03-16T16:44:55.451Z,2.00
2019-03-16T16:47:28.763Z,2.30
2019-03-16T16:50:03.604Z,1.90
2019-03-16T16:52:38.477Z,1.97
2019-03-16T16:55:13.327Z,2.13
2019-03-16T16:57:47.806Z,2.10
2019-03-16T17:00:20.011Z,1.90
2019-03-16T17:02:56.934Z,1.83
2019-03-16T17:05:36.102Z,1.70
2019-03-16T17:08:17.931Z,1.90
2019-03-16T17:10:50.816Z,2.10
2019-03-16T17:13:29.616Z,2.10
2019-03-16T17:16:05.308Z,2.13
2019-03-16T17:18:46.886Z,2.37
2019-03-16T17:21:23.345Z,3.00
2019-03-16T17:23:57.542Z,2.40
2019-03-16T17:26:35.983Z,2.50
2019-03-16T17:33:22.566Z,3.27
2019-03-16T17:36:42.015Z,2.57
2019-03-16T17:40:03.184Z,2.60
2019-03-16T17:42:39.906Z,2.70
2019-03-16T17:48:57.419Z,2.87
2019-03-16T17:51:30.518Z,3.03
2019-03-16T17:54:04.535Z,2.60
2019-03-16T17:56:38.766Z,3.23
2019-03-16T17:59:15.323Z,3.10
2019-03-16T18:01:54.487Z,3.33
2019-03-16T18:04:24.497Z,3.20
2019-03-16T18:06:55.039Z,3.13
2019-03-16T18:54:12.133Z,3.70
2019-03-16T19:08:14.996Z,3.53
2019-03-16T19:14:24.974Z,3.23
2019-03-16T19:25:25.080Z,3.00
2019-03-16T19:28:02.965Z,2.87
2019-03-16T19:30:34.639Z,2.80
2019-03-16T19:33:07.665Z,2.97
2019-03-16T19:35:40.772Z,3.10
2019-03-16T19:38:15.534Z,3.10
2019-03-16T19:40:46.325Z,3.00
2019-03-16T19:43:19.902Z,3.33
2019-03-16T19:45:50.326Z,3.17
2019-03-16T19:48:20.625Z,2.80
2019-03-16T19:50:54.942Z,4.07
2019-03-16T19:53:28.237Z,3.10
2019-03-16T19:56:03.611Z,3.20
2019-03-16T19:58:35.983Z,2.73
2019-03-16T20:01:12.320Z,3.00
2019-03-16T20:03:42.807Z,2.87
2019-03-16T20:06:25.232Z,3.20
2019-03-16T20:08:49.748Z,3.47
2019-03-16T20:11:23.256Z,2.73
2019-03-16T20:13:58.016Z,3.10
2019-03-16T20:16:38.101Z,3.10
2019-03-16T20:19:14.444Z,3.10
2019-03-16T20:21:47.959Z,3.63
2019-03-16T20:24:27.583Z,3.27
2019-03-16T20:27:07.097Z,2.70
2019-03-16T20:29:44.950Z,3.00
2019-03-16T20:32:20.558Z,3.30
2019-03-16T20:34:51.995Z,3.33
2019-03-16T20:37:23.477Z,3.40
2019-03-16T20:39:58.935Z,3.47
2019-03-16T20:42:32.621Z,3.10
2019-03-16T20:45:04.352Z,3.20
2019-03-16T20:47:34.947Z,3.63
2019-03-16T20:50:06.055Z,3.50
2019-03-16T20:52:39.389Z,3.60
2019-03-16T20:55:12.377Z,3.83
2019-03-16T20:57:43.100Z,3.73
2019-03-16T21:00:18.585Z,3.50
2019-03-16T21:02:49.216Z,3.73
2019-03-16T21:05:30.248Z,3.33
2019-03-16T21:08:08.901Z,3.10
2019-03-16T21:10:47.431Z,3.37
2019-03-16T21:13:18.307Z,3.20
2019-03-16T21:15:48.540Z,3.10
2019-03-16T21:18:19.102Z,3.00
2019-03-16T21:20:52.650Z,3.40
2019-03-16T21:23:23.222Z,3.37
2019-03-16T21:25:54.428Z,3.50
2019-03-16T21:28:27.932Z,3.60
2019-03-16T21:31:03.092Z,3.73
2019-03-16T21:33:37.755Z,3.50
2019-03-16T21:36:12.541Z,3.37
2019-03-16T21:38:50.144Z,3.40
2019-03-16T21:41:21.291Z,3.53
2019-03-16T21:43:51.978Z,3.30
2019-03-16T21:46:23.472Z,3.80
2019-03-16T21:48:56.299Z,3.07
2019-03-16T21:51:30.734Z,2.90
2019-03-16T21:54:04.761Z,3.10
2019-03-16T21:56:36.857Z,3.40
2019-03-16T21:59:13.115Z,3.17
2019-03-16T22:01:49.838Z,3.17
2019-03-16T22:04:25.100Z,2.90
2019-03-16T22:06:56.733Z,3.03
2019-03-16T22:09:29.882Z,2.77
2019-03-16T22:12:03.475Z,2.90
2019-03-16T22:14:35.751Z,2.80
2019-03-16T22:17:07.850Z,3.10
2019-03-16T22:24:27.200Z,2.73
2019-03-16T22:30:37.770Z,2.90
2019-03-16T22:34:14.197Z,3.07
2019-03-16T22:37:57.634Z,2.60
2019-03-16T22:40:30.189Z,2.20
2019-03-16T22:43:46.188Z,2.47
2019-03-16T22:49:38.488Z,2.50
2019-03-16T22:52:32.578Z,2.30
2019-03-16T22:55:15.658Z,2.10
2019-03-16T23:02:52.089Z,2.70
2019-03-16T23:05:37.690Z,2.17
2019-03-16T23:15:24.825Z,2.30
2019-03-16T23:20:52.025Z,2.30
2019-03-16T23:23:25.846Z,2.37
2019-03-16T23:26:00.003Z,2.37
2019-03-16T23:28:40.114Z,2.10
2019-03-16T23:34:39.803Z,2.10
2019-03-16T23:37:16.972Z,2.13
2019-03-16T23:39:50.558Z,2.50
2019-03-16T23:42:22.881Z,2.20
2019-03-16T23:45:01.921Z,2.10
2019-03-16T23:47:33.174Z,2.43
2019-03-16T23:50:06.945Z,2.17
2019-03-16T23:52:42.440Z,2.27
2019-03-16T23:55:14.844Z,2.27
2019-03-16T23:57:49.217Z,2.23
